Fannettsburg, Pennsylvania
Current Conditions -  °F | °C
As of 9:53 PM on Friday 21 Nov 2014 (Local Time) from KHGR Reporting Station
Clear Clear  
Wind Chill: 19°   Ceiling: Unl
Heat Index: 25°   Visibility: 10mi
Dew Point:   Wind: 5mph
Humidity: 51%   Direction: 160°SSE
Pressure: 30.52"   Gusts: NA
Location:  40.07°N, 77.83°W
Report Text: KHGR 220253Z 16004KT 10SM CLR M04/M13 A3052 RMK AO2 SLP353 T10391128 53004
Loading
Personal Weather Stations






























Interactive Weather Map New forecast layout! Learn more

10-Day Weather Forecast

Advertisements
Track Severe Weather on mobile